Time;durP1;ratioP1;P1;durP2;ratioP2;P2;SDS_P1;SDS_P2;PMS_P1;PMS_P2;Temp;Humidity;BMP_temperature;BMP_pressure;BME280_temperature;BME280_humidity;BME280_pressure;Samples;Min_cycle;Max_cycle;Signal;HPM_P1;HPM_P2
2022/10/15 00:02:10;;;;;;;11.02;8.32;;;;;;;11.99;94.06;100693.19;6184955;23;20016;-90
2022/10/15 00:04:35;;;;;;;12.20;7.50;;;;;;;11.93;93.88;100698.47;6186549;23;20125;-89
2022/10/15 00:07:00;;;;;;;12.98;8.52;;;;;;;11.83;94.53;100683.44;6186494;23;20005;-89
2022/10/15 00:09:26;;;;;;;9.60;7.93;;;;;;;11.84;94.61;100687.84;6186103;23;20005;-89
2022/10/15 00:11:51;;;;;;;10.52;8.18;;;;;;;11.84;94.38;100701.09;6184886;23;20420;-88
2022/10/15 00:14:17;;;;;;;11.20;8.93;;;;;;;11.81;94.65;100706.31;6160150;23;20380;-89
2022/10/15 00:16:42;;;;;;;11.18;8.50;;;;;;;11.77;94.33;100691.31;6184607;23;20025;-88
2022/10/15 00:19:08;;;;;;;12.00;7.60;;;;;;;11.77;93.68;100699.25;6186750;23;20009;-88
2022/10/15 00:21:34;;;;;;;12.40;8.82;;;;;;;11.76;94.25;100700.13;6186349;23;20526;-89
2022/10/15 00:24:00;;;;;;;12.48;9.68;;;;;;;11.66;95.14;100678.06;6186376;23;20005;-88
2022/10/15 00:26:27;;;;;;;17.65;11.15;;;;;;;11.76;96.23;100702.78;6186131;23;20132;-88
2022/10/15 00:28:56;;;;;;;18.35;11.98;;;;;;;11.71;96.71;100689.53;6186308;23;20319;-89
2022/10/15 00:31:23;;;;;;;15.60;11.80;;;;;;;11.76;97.04;100700.13;6184436;23;20077;-89
2022/10/15 00:33:49;;;;;;;16.77;11.63;;;;;;;11.77;96.89;100697.50;6186336;23;20009;-89
2022/10/15 00:36:21;;;;;;;20.83;13.23;;;;;;;11.77;97.64;100700.13;6186240;23;20020;-89
2022/10/15 00:38:47;;;;;;;18.75;13.30;;;;;;;11.82;97.53;100702.84;6185981;23;20004;-89
2022/10/15 00:41:18;;;;;;;16.45;11.60;;;;;;;11.79;97.87;100686.94;6186204;23;20009;-89
2022/10/15 00:43:48;;;;;;;17.65;11.55;;;;;;;11.89;96.97;100707.28;6186308;23;20079;-89
2022/10/15 00:46:22;;;;;;;19.60;13.63;;;;;;;11.90;97.49;100701.09;6185806;23;20011;-89
2022/10/15 00:48:53;;;;;;;22.65;15.27;;;;;;;11.88;98.05;100696.69;6186129;23;20009;-89
2022/10/15 00:51:21;;;;;;;24.77;16.08;;;;;;;11.95;98.71;100709.09;6186178;23;20012;-89
2022/10/15 00:53:49;;;;;;;15.23;10.95;;;;;;;11.98;98.24;100709.94;6186227;23;20371;-89
2022/10/15 00:56:19;;;;;;;25.67;16.80;;;;;;;12.01;98.88;100707.31;6186134;23;20013;-89
2022/10/15 00:58:45;;;;;;;22.48;15.45;;;;;;;12.04;99.38;100706.44;6186291;23;20009;-90
2022/10/15 01:01:11;;;;;;;23.08;16.00;;;;;;;11.99;99.65;100690.56;6186092;23;20036;-89
2022/10/15 01:03:36;;;;;;;27.88;17.35;;;;;;;12.08;100.00;100717.94;6186086;23;20005;-90
2022/10/15 01:06:02;;;;;;;23.08;17.25;;;;;;;11.99;100.00;100697.59;6205143;23;20016;-89
2022/10/15 01:08:28;;;;;;;30.73;18.45;;;;;;;12.05;100.00;100700.28;6159719;23;20005;-90
2022/10/15 01:11:10;;;;;;;23.20;16.25;;;;;;;12.01;100.00;100690.53;6186025;23;20005;-88
2022/10/15 01:13:56;;;;;;;25.20;16.75;;;;;;;12.06;100.00;100696.72;6186043;23;20009;-89
2022/10/15 01:16:31;;;;;;;26.33;17.52;;;;;;;12.08;100.00;100704.69;6185927;23;20005;-89
2022/10/15 01:19:23;;;;;;;27.75;18.33;;;;;;;12.08;100.00;100694.09;6161009;23;20001;-88
2022/10/15 01:21:59;;;;;;;26.20;19.45;;;;;;;12.04;100.00;100677.31;6186176;23;20012;-88
2022/10/15 01:24:36;;;;;;;26.60;18.80;;;;;;;12.13;100.00;100679.97;6185672;23;20072;-88
2022/10/15 01:27:17;;;;;;;29.33;20.35;;;;;;;12.22;100.00;100682.63;6185659;23;20014;-88
2022/10/15 01:30:02;;;;;;;29.80;21.33;;;;;;;12.24;100.00;100672.91;6185905;23;20072;-88
2022/10/15 01:32:33;;;;;;;28.80;20.08;;;;;;;12.27;100.00;100666.75;6185800;23;20032;-88
2022/10/15 01:35:35;;;;;;;29.45;20.65;;;;;;;12.30;100.00;100665.88;6185673;23;20424;-88
2022/10/15 01:38:34;;;;;;;31.33;20.58;;;;;;;12.33;100.00;100668.50;6125022;23;20005;-88
2022/10/15 01:41:09;;;;;;;28.42;20.85;;;;;;;12.30;100.00;100649.97;6185978;23;20005;-89
2022/10/15 01:43:42;;;;;;;30.05;20.63;;;;;;;12.29;100.00;100649.09;6186243;23;20064;-88
2022/10/15 01:46:17;;;;;;;25.25;19.55;;;;;;;12.40;100.00;100662.34;6187687;23;20083;-89
2022/10/15 01:48:43;;;;;;;30.65;21.13;;;;;;;12.48;100.00;100665.88;6187826;23;20012;-89
2022/10/15 01:51:10;;;;;;;31.20;20.48;;;;;;;12.50;100.00;100666.75;6187814;23;20005;-89
2022/10/15 01:53:37;;;;;;;30.48;20.35;;;;;;;12.47;100.00;100650.88;6187750;23;20005;-89
2022/10/15 01:56:10;;;;;;;27.40;20.15;;;;;;;12.51;100.00;100652.63;6186268;23;20059;-89
2022/10/15 01:58:41;;;;;;;26.80;19.45;;;;;;;12.49;100.00;100638.47;6187324;23;20005;-88
2022/10/15 02:01:06;;;;;;;28.38;19.92;;;;;;;12.60;100.00;100655.28;6187321;23;20076;-88
2022/10/15 02:03:48;;;;;;;25.33;18.70;;;;;;;12.56;100.00;100636.72;6187770;23;20036;-89
2022/10/15 02:06:41;;;;;;;28.00;19.13;;;;;;;12.65;100.00;100650.84;6187783;23;20005;-88
2022/10/15 02:09:19;;;;;;;25.20;18.98;;;;;;;12.53;100.00;100627.88;6177772;23;20009;-88
2022/10/15 02:12:20;;;;;;;23.88;18.33;;;;;;;12.70;100.00;100656.16;6187365;23;20336;-88
2022/10/15 02:14:55;;;;;;;22.38;18.15;;;;;;;12.70;100.00;100653.50;6139321;23;20324;-88
2022/10/15 02:17:28;;;;;;;25.67;17.33;;;;;;;12.72;100.00;100646.44;6187011;23;20372;-87
2022/10/15 02:20:11;;;;;;;;;;;;;;;12.76;100.00;100638.47;6188143;23;20009;-87
2022/10/15 02:22:45;;;;;;;25.27;18.08;;;;;;;12.67;100.00;100622.56;6187605;23;19911;-88
2022/10/15 02:25:17;;;;;;;23.50;17.60;;;;;;;12.55;100.00;100606.69;6187208;23;20078;-89
2022/10/15 02:27:46;;;;;;;30.60;20.42;;;;;;;12.67;100.00;100624.31;6189969;23;20451;-88
2022/10/15 02:30:13;;;;;;;25.73;19.17;;;;;;;12.75;100.00;100630.50;6201908;23;20132;-88
2022/10/15 02:32:40;;;;;;;24.60;18.75;;;;;;;12.72;100.00;100618.16;6187463;23;20005;-89
2022/10/15 02:35:09;;;;;;;31.77;20.15;;;;;;;12.64;100.00;100609.31;6161313;23;20084;-88
2022/10/15 02:37:36;;;;;;;33.03;20.20;;;;;;;12.75;100.00;100638.47;6187314;23;20008;-88
2022/10/15 02:40:01;;;;;;;29.40;19.95;;;;;;;12.74;100.00;100624.31;6187409;23;20373;-89
2022/10/15 02:42:27;;;;;;;29.38;19.38;;;;;;;12.74;100.00;100619.03;6186987;23;20436;-88
2022/10/15 02:44:52;;;;;;;29.63;20.67;;;;;;;12.73;100.00;100611.97;6160990;23;20009;-88
2022/10/15 02:47:18;;;;;;;31.45;21.50;;;;;;;12.72;100.00;100612.84;6186732;23;20013;-88
2022/10/15 02:49:44;;;;;;;29.45;20.23;;;;;;;12.71;100.00;100608.41;6187389;23;20013;-87
2022/10/15 02:52:10;;;;;;;29.02;20.27;;;;;;;12.70;100.00;100606.66;6160679;23;20309;-87
2022/10/15 02:54:35;;;;;;;25.95;20.20;;;;;;;12.62;100.00;100584.56;6186953;23;20015;-88
2022/10/15 02:57:01;;;;;;;26.75;20.10;;;;;;;12.70;100.00;100604.00;6160634;23;20009;-88
2022/10/15 02:59:26;;;;;;;30.40;20.13;;;;;;;12.71;100.00;100602.22;6187286;23;20036;-88
2022/10/15 03:01:51;;;;;;;29.17;20.10;;;;;;;12.65;100.00;100581.94;6188179;23;20013;-87
2022/10/15 03:04:17;;;;;;;35.00;20.55;;;;;;;12.73;100.00;100590.75;6187690;23;20047;-89
2022/10/15 03:06:42;;;;;;;30.88;19.42;;;;;;;12.73;100.00;100593.41;6187608;23;20005;-90
2022/10/15 03:09:08;;;;;;;30.52;20.65;;;;;;;12.71;100.00;100581.03;6187380;23;20422;-88
2022/10/15 03:11:33;;;;;;;29.42;20.17;;;;;;;12.60;100.00;100559.84;6187363;23;20329;-88
2022/10/15 03:13:58;;;;;;;30.10;19.70;;;;;;;12.72;100.00;100581.03;6187294;23;20029;-88
2022/10/15 03:16:24;;;;;;;29.70;20.73;;;;;;;12.67;100.00;100580.13;6186479;23;20009;-89
2022/10/15 03:18:49;;;;;;;25.45;19.25;;;;;;;12.60;100.00;100566.94;6186760;23;20428;-88
2022/10/15 03:21:15;;;;;;;29.73;20.55;;;;;;;12.72;100.00;100590.75;6186959;23;20009;-87
2022/10/15 03:23:40;;;;;;;31.15;21.75;;;;;;;12.65;100.00;100576.63;6186948;23;20013;-88
2022/10/15 03:26:06;;;;;;;32.53;20.77;;;;;;;12.69;100.00;100589.00;6186906;23;20009;-87
2022/10/15 03:28:31;;;;;;;31.23;20.70;;;;;;;12.65;100.00;100581.03;6187084;23;20013;-88
2022/10/15 03:30:57;;;;;;;28.30;21.48;;;;;;;12.69;100.00;100591.63;6186938;23;20064;-88
2022/10/15 03:33:22;;;;;;;28.23;20.65;;;;;;;12.64;100.00;100574.88;6186504;23;20017;-89
2022/10/15 03:35:47;;;;;;;30.27;20.08;;;;;;;12.64;100.00;100581.94;6186957;23;20013;-89
2022/10/15 03:38:13;;;;;;;34.47;21.45;;;;;;;12.68;100.00;100589.88;6186799;23;20029;-88
2022/10/15 03:40:38;;;;;;;32.65;20.58;;;;;;;12.67;100.00;100585.44;6160589;23;20016;-89
2022/10/15 03:43:03;;;;;;;26.90;19.65;;;;;;;12.72;100.00;100594.28;6186359;23;20009;-88
2022/10/15 03:45:29;;;;;;;34.58;20.52;;;;;;;12.67;100.00;100581.91;6184941;23;20491;-88
2022/10/15 03:47:54;;;;;;;30.30;21.23;;;;;;;12.73;100.00;100587.22;6186673;23;20309;-88
2022/10/15 03:50:19;;;;;;;30.27;20.00;;;;;;;12.74;100.00;100587.19;6186757;23;20017;-87
2022/10/15 03:52:45;;;;;;;27.70;19.75;;;;;;;12.57;100.00;100543.06;6195019;23;20005;-87
2022/10/15 03:55:10;;;;;;;29.80;20.55;;;;;;;12.74;100.00;100578.38;6189129;23;20028;-88
2022/10/15 03:57:37;;;;;;;36.13;20.98;;;;;;;12.77;100.00;100581.03;6186678;23;20012;-87
2022/10/15 04:00:05;;;;;;;31.48;20.40;;;;;;;12.77;100.00;100573.94;6186520;23;20001;-88
2022/10/15 04:02:31;;;;;;;32.22;21.27;;;;;;;12.72;100.00;100557.19;6186129;23;20080;-89
2022/10/15 04:04:56;;;;;;;32.15;21.50;;;;;;;12.81;100.00;100574.81;6186250;23;20013;-88
2022/10/15 04:07:22;;;;;;;30.70;21.23;;;;;;;12.74;100.00;100562.47;6186243;23;20014;-88
2022/10/15 04:09:48;;;;;;;30.77;22.05;;;;;;;12.79;100.00;100572.16;6186145;23;20004;-87
2022/10/15 04:12:13;;;;;;;31.45;21.05;;;;;;;12.70;100.00;100558.94;6186380;23;20087;-87
2022/10/15 04:14:39;;;;;;;33.97;21.75;;;;;;;12.76;100.00;100576.59;6184893;23;20320;-87
2022/10/15 04:17:05;;;;;;;39.80;22.98;;;;;;;12.67;100.00;100568.66;6185879;23;20040;-88
2022/10/15 04:19:30;;;;;;;34.90;22.88;;;;;;;12.66;100.00;100567.78;6184802;23;20016;-87
2022/10/15 04:21:56;;;;;;;35.88;22.05;;;;;;;12.67;100.00;100569.53;6186384;23;20066;-87
2022/10/15 04:24:21;;;;;;;39.65;24.30;;;;;;;12.74;100.00;100579.25;6186372;23;20060;-87
2022/10/15 04:26:47;;;;;;;38.13;23.20;;;;;;;12.71;100.00;100578.38;6186046;23;20020;-87
2022/10/15 04:29:12;;;;;;;38.47;23.40;;;;;;;12.60;100.00;100567.81;6186307;23;20021;-87
2022/10/15 04:31:38;;;;;;;40.15;23.02;;;;;;;12.66;100.00;100581.03;6186127;23;20067;-87
2022/10/15 04:34:03;;;;;;;40.63;25.05;;;;;;;12.68;100.00;100584.59;6160042;23;20331;-88
2022/10/15 04:36:29;;;;;;;40.15;24.02;;;;;;;12.70;100.00;100576.59;6186129;23;20025;-89
2022/10/15 04:38:54;;;;;;;42.35;24.80;;;;;;;12.82;100.00;100589.84;6186245;23;20015;-88
2022/10/15 04:41:20;;;;;;;41.38;26.65;;;;;;;12.70;100.00;100561.59;6186305;23;20416;-88
2022/10/15 04:43:45;;;;;;;46.10;26.48;;;;;;;12.76;100.00;100566.88;6186360;23;20379;-88
2022/10/15 04:46:11;;;;;;;42.40;25.58;;;;;;;12.86;100.00;100580.13;6185577;23;20080;-87
2022/10/15 04:48:37;;;;;;;46.47;26.92;;;;;;;12.79;100.00;100574.81;6185794;23;20043;-88
2022/10/15 04:51:14;;;;;;;45.05;26.63;;;;;;;12.88;100.00;100583.63;6186256;23;20429;-87
2022/10/15 04:53:39;;;;;;;44.33;25.70;;;;;;;12.89;100.00;100583.66;6185950;23;20001;-88
2022/10/15 04:56:07;;;;;;;44.58;27.00;;;;;;;12.83;100.00;100564.22;6186087;23;20055;-87
2022/10/15 04:58:35;;;;;;;47.85;27.23;;;;;;;12.83;100.00;100565.09;6185685;23;20462;-87
2022/10/15 05:01:05;;;;;;;45.30;25.27;;;;;;;12.86;100.00;100572.16;6185977;23;20005;-88
2022/10/15 05:03:32;;;;;;;45.58;25.80;;;;;;;12.93;100.00;100582.75;6186135;23;20008;-88
2022/10/15 05:06:02;;;;;;;45.58;23.77;;;;;;;12.92;100.00;100580.09;6184563;23;20016;-87
2022/10/15 05:08:28;;;;;;;40.22;24.45;;;;;;;12.94;100.00;100576.56;6186016;23;20076;-88
2022/10/15 05:10:54;;;;;;;40.95;25.80;;;;;;;12.89;100.00;100567.75;6184802;23;20040;-88
2022/10/15 05:13:19;;;;;;;43.65;25.33;;;;;;;12.90;100.00;100576.56;6186115;23;20009;-88
2022/10/15 05:15:44;;;;;;;39.20;24.38;;;;;;;12.86;100.00;100567.75;6191161;23;20020;-87
2022/10/15 05:18:10;;;;;;;46.30;25.23;;;;;;;12.92;100.00;100575.66;6198002;23;20136;-88
2022/10/15 05:20:35;;;;;;;41.25;24.80;;;;;;;12.91;100.00;100581.84;6189392;23;20005;-89
2022/10/15 05:23:03;;;;;;;36.65;23.35;;;;;;;12.96;100.00;100588.03;6189370;23;20013;-88
2022/10/15 05:25:28;;;;;;;33.83;22.05;;;;;;;12.81;100.00;100558.91;6189277;23;20013;-87
2022/10/15 05:27:54;;;;;;;31.65;21.10;;;;;;;12.89;100.00;100566.81;6189163;23;20321;-88
2022/10/15 05:30:20;;;;;;;30.13;20.52;;;;;;;12.90;100.00;100582.75;6163280;23;20013;-88
2022/10/15 05:32:45;;;;;;;30.35;19.35;;;;;;;12.99;100.00;100589.78;6189318;23;20063;-88
2022/10/15 05:35:10;;;;;;;32.13;19.90;;;;;;;12.91;100.00;100575.69;6189244;23;20431;-88
2022/10/15 05:37:35;;;;;;;31.33;20.67;;;;;;;13.00;100.00;100588.91;6189308;23;20415;-88
2022/10/15 05:40:01;;;;;;;35.28;21.30;;;;;;;12.99;100.00;100587.16;6187834;23;20340;-89
2022/10/15 05:42:26;;;;;;;32.55;21.08;;;;;;;13.00;100.00;100589.78;6189221;23;20379;-89
2022/10/15 05:44:52;;;;;;;30.52;20.77;;;;;;;13.00;100.00;100589.78;6188805;23;20051;-88
2022/10/15 05:47:17;;;;;;;30.58;21.10;;;;;;;12.91;100.00;100575.69;6189095;23;20012;-88
2022/10/15 05:49:42;;;;;;;34.25;21.05;;;;;;;12.96;100.00;100585.38;6188801;23;20009;-86
2022/10/15 05:52:08;;;;;;;32.97;21.15;;;;;;;12.97;100.00;100579.16;6188737;23;20044;-88
2022/10/15 05:54:33;;;;;;;35.40;19.75;;;;;;;12.93;100.00;100576.53;6189144;23;20416;-88
2022/10/15 05:56:59;;;;;;;28.05;19.85;;;;;;;12.89;100.00;100559.78;6189223;23;20080;-88
2022/10/15 05:59:24;;;;;;;38.55;20.92;;;;;;;12.88;100.00;100555.34;6189161;23;20009;-88
2022/10/15 06:01:50;;;;;;;30.27;20.25;;;;;;;12.93;100.00;100566.84;6187499;23;20344;-85
2022/10/15 06:04:15;;;;;;;33.85;21.83;;;;;;;12.91;100.00;100560.63;6189214;23;20418;-88
2022/10/15 06:06:41;;;;;;;30.92;20.73;;;;;;;12.79;100.00;100550.94;6162754;23;20436;-88
2022/10/15 06:09:06;;;;;;;34.13;21.45;;;;;;;13.01;100.00;100580.06;6162504;23;20016;-88
2022/10/15 06:11:31;;;;;;;33.05;21.80;;;;;;;12.99;100.00;100581.84;6188127;23;20005;-89
2022/10/15 06:13:57;;;;;;;33.72;21.73;;;;;;;12.97;100.00;100576.53;6188826;23;20016;-87
2022/10/15 06:16:22;;;;;;;38.10;22.42;;;;;;;13.03;100.00;100578.28;6188175;23;20028;-88
2022/10/15 06:18:48;;;;;;;33.08;22.55;;;;;;;13.00;100.00;100581.81;6188734;23;20008;-88
2022/10/15 06:21:13;;;;;;;37.08;22.98;;;;;;;12.95;100.00;100580.97;6188802;23;20009;-87
2022/10/15 06:23:39;;;;;;;36.50;22.30;;;;;;;13.00;100.00;100579.16;6162430;23;20009;-88
2022/10/15 06:26:06;;;;;;;33.78;21.45;;;;;;;13.00;100.00;100575.63;6188856;23;20084;-88
2022/10/15 06:28:32;;;;;;;38.83;22.40;;;;;;;12.96;100.00;100576.53;6175646;23;20309;-88
2022/10/15 06:30:59;;;;;;;35.78;23.58;;;;;;;13.03;100.00;100586.25;6186829;23;20447;-88
2022/10/15 06:33:24;;;;;;;35.95;23.42;;;;;;;12.89;100.00;100559.78;6210497;23;20503;-89
2022/10/15 06:35:50;;;;;;;37.67;23.77;;;;;;;12.92;100.00;100564.16;6187033;23;20423;-84
2022/10/15 06:38:15;;;;;;;40.38;24.60;;;;;;;13.03;100.00;100586.25;6186852;23;20009;-87
2022/10/15 06:40:41;;;;;;;39.78;24.48;;;;;;;13.03;100.00;100583.59;6198166;23;20020;-89
2022/10/15 06:43:08;;;;;;;37.53;23.83;;;;;;;13.02;100.00;100588.03;6165659;23;20056;-88
2022/10/15 06:45:37;;;;;;;37.17;24.23;;;;;;;12.98;100.00;100575.66;6186793;23;20012;-89
2022/10/15 06:48:03;;;;;;;35.85;22.77;;;;;;;13.08;100.00;100583.56;6185220;23;20068;-88
2022/10/15 06:50:33;;;;;;;36.67;22.50;;;;;;;13.10;100.00;100587.09;6187388;23;20384;-86
2022/10/15 06:52:59;;;;;;;38.65;23.70;;;;;;;13.13;100.00;100585.31;6186943;23;20009;-87
2022/10/15 06:55:24;;;;;;;34.67;21.55;;;;;;;13.13;100.00;100573.81;6186726;23;20031;-87
2022/10/15 06:57:50;;;;;;;33.92;20.95;;;;;;;13.15;100.00;100582.69;6186717;23;20037;-85
2022/10/15 07:00:16;;;;;;;34.08;20.70;;;;;;;13.08;100.00;100565.00;6186887;23;20008;-87
2022/10/15 07:02:42;;;;;;;34.17;19.77;;;;;;;13.17;100.00;100578.22;6186764;23;20483;-87
2022/10/15 07:05:08;;;;;;;35.35;20.45;;;;;;;13.14;100.00;100580.88;6185133;23;20051;-86
2022/10/15 07:07:33;;;;;;;30.38;19.65;;;;;;;13.10;100.00;100566.75;6186674;23;20084;-85
2022/10/15 07:09:59;;;;;;;31.17;20.35;;;;;;;13.17;100.00;100576.44;6186632;23;20001;-85
2022/10/15 07:12:24;;;;;;;32.15;20.33;;;;;;;13.14;100.00;100564.97;6186501;23;20009;-86
2022/10/15 07:14:49;;;;;;;34.30;20.17;;;;;;;13.19;100.00;100565.81;6186743;23;20032;-87
2022/10/15 07:17:15;;;;;;;28.80;19.35;;;;;;;13.33;100.00;100589.69;6186647;23;20040;-87
2022/10/15 07:19:40;;;;;;;31.42;19.75;;;;;;;13.36;100.00;100582.63;6186344;23;20005;-87
2022/10/15 07:22:06;;;;;;;32.45;20.27;;;;;;;13.40;100.00;100591.41;6186381;23;20392;-86
2022/10/15 07:24:31;;;;;;;31.65;19.60;;;;;;;13.34;100.00;100575.53;6184951;23;20017;-86
2022/10/15 07:26:56;;;;;;;30.25;17.75;;;;;;;13.42;100.00;100584.34;6186299;23;20005;-85
2022/10/15 07:29:22;;;;;;;26.75;17.95;;;;;;;13.56;100.00;100585.13;6186387;23;20395;-86
2022/10/15 07:31:47;;;;;;;30.05;16.73;;;;;;;13.62;100.00;100573.59;6186073;23;20013;-86
2022/10/15 07:34:12;;;;;;;28.20;18.55;;;;;;;13.69;100.00;100543.47;6186446;23;20005;-86
2022/10/15 07:36:38;;;;;;;27.38;18.80;;;;;;;13.95;100.00;100560.09;6186313;23;20055;-87
2022/10/15 07:39:03;;;;;;;25.83;17.17;;;;;;;13.97;100.00;100541.50;6186004;23;20012;-87
2022/10/15 07:41:30;;;;;;;26.73;17.50;;;;;;;13.95;100.00;100528.22;6186198;23;20009;-87
2022/10/15 07:43:55;;;;;;;25.50;17.17;;;;;;;14.08;100.00;100544.94;6186223;23;20424;-87
2022/10/15 07:46:20;;;;;;;23.52;16.38;;;;;;;14.13;100.00;100550.19;6186043;23;20043;-84
2022/10/15 07:48:46;;;;;;;27.90;17.20;;;;;;;14.09;100.00;100538.75;6185780;23;20317;-87
2022/10/15 07:51:11;;;;;;;22.55;16.17;;;;;;;14.12;100.00;100545.78;6185916;23;20013;-88
2022/10/15 07:53:37;;;;;;;22.58;15.50;;;;;;;14.17;100.00;100558.13;6185806;23;20431;-87
2022/10/15 07:56:09;;;;;;;23.67;15.23;;;;;;;14.19;100.00;100539.53;6159799;23;20009;-87
2022/10/15 07:58:37;;;;;;;23.38;15.40;;;;;;;14.42;99.46;100526.91;6186591;23;20494;-87
2022/10/15 08:01:04;;;;;;;28.33;15.75;;;;;;;14.76;98.95;100540.75;6185882;23;20001;-87
2022/10/15 08:03:30;;;;;;;19.73;13.93;;;;;;;14.92;96.74;100530.81;6186292;23;20009;-87
2022/10/15 08:05:58;;;;;;;21.90;14.85;;;;;;;14.96;96.06;100526.34;6189161;23;20482;-87
2022/10/15 08:08:23;;;;;;;21.02;13.70;;;;;;;15.02;95.93;100542.22;6186132;23;20001;-86
2022/10/15 08:10:49;;;;;;;20.10;12.25;;;;;;;14.95;94.53;100529.91;6186133;23;20016;-86
2022/10/15 08:13:14;;;;;;;18.70;12.88;;;;;;;14.92;95.23;100529.94;6185975;23;20068;-88
2022/10/15 08:15:41;;;;;;;19.98;12.32;;;;;;;14.93;94.58;100537.00;6185898;23;20009;-86
2022/10/15 08:18:08;;;;;;;17.90;12.15;;;;;;;14.75;94.87;100515.06;6186759;23;20005;-88
2022/10/15 08:20:37;;;;;;;18.10;11.35;;;;;;;14.84;94.51;100523.81;6185722;23;20013;-87
2022/10/15 08:23:03;;;;;;;20.92;11.20;;;;;;;14.81;94.85;100530.06;6185459;23;20016;-87
2022/10/15 08:25:29;;;;;;;16.63;11.57;;;;;;;14.86;95.33;100522.91;6185817;23;20001;-87
2022/10/15 08:27:55;;;;;;;15.90;10.60;;;;;;;14.90;95.81;100518.41;6185961;23;20013;-88
2022/10/15 08:30:20;;;;;;;17.25;10.30;;;;;;;14.90;94.84;100531.72;6185746;23;20327;-87
2022/10/15 08:32:46;;;;;;;14.93;10.45;;;;;;;14.90;95.30;100524.66;6185402;23;20063;-87
2022/10/15 08:35:11;;;;;;;12.63;9.00;;;;;;;14.94;95.02;100530.78;6185820;23;20076;-87
2022/10/15 08:37:37;;;;;;;12.48;8.52;;;;;;;14.92;94.12;100529.94;6185829;23;20072;-89
2022/10/15 08:40:03;;;;;;;14.20;8.63;;;;;;;14.74;94.81;100505.31;6185842;23;20008;-87
2022/10/15 08:42:40;;;;;;;11.55;7.88;;;;;;;14.84;94.82;100519.38;6185696;23;20009;-88
2022/10/15 08:45:12;;;;;;;10.35;7.93;;;;;;;14.81;94.79;100513.22;6186678;23;20009;-87
2022/10/15 08:47:45;;;;;;;11.20;7.75;;;;;;;14.76;94.25;100500.84;6185095;23;20336;-87
2022/10/15 08:50:26;;;;;;;10.50;7.30;;;;;;;14.76;95.09;100502.63;6185834;23;20036;-86
2022/10/15 08:52:55;;;;;;;9.95;7.20;;;;;;;14.86;94.97;100509.63;6185462;23;20083;-88
2022/10/15 08:55:22;;;;;;;11.30;7.72;;;;;;;14.84;95.46;100498.09;6184295;23;20403;-89
2022/10/15 08:58:29;;;;;;;10.05;7.35;;;;;;;14.95;95.57;100498.88;6186341;23;20016;-89
2022/10/15 09:01:02;;;;;;;11.30;7.43;;;;;;;14.99;95.49;100508.56;6185896;23;20012;-86
2022/10/15 09:03:51;;;;;;;10.27;7.38;;;;;;;15.01;95.28;100493.44;6185318;23;20338;-87
2022/10/15 09:06:27;;;;;;;13.60;7.32;;;;;;;14.93;95.40;100476.69;6184626;23;20013;-87
2022/10/15 09:09:01;;;;;;;10.98;7.60;;;;;;;15.02;95.33;100479.22;6183989;23;20008;-87
2022/10/15 09:11:44;;;;;;;12.07;7.30;;;;;;;15.04;95.97;100476.56;6185927;23;20005;-88
2022/10/15 09:14:15;;;;;;;11.15;7.50;;;;;;;15.05;95.23;100475.66;6184011;23;20082;-88
2022/10/15 09:16:43;;;;;;;10.80;7.32;;;;;;;15.06;95.13;100469.44;6185558;23;20005;-88
2022/10/15 09:19:28;;;;;;;12.63;8.07;;;;;;;14.97;95.22;100454.47;6185483;23;20001;-88
2022/10/15 09:21:54;;;;;;;19.10;13.57;;;;;;;15.08;95.39;100472.09;6185714;23;20009;-88
2022/10/15 09:24:26;;;;;;;22.38;15.52;;;;;;;14.97;95.58;100459.78;6160410;23;20364;-86
2022/10/15 09:27:05;;;;;;;23.50;15.35;;;;;;;15.00;96.18;100480.16;6163164;23;20099;-88
2022/10/15 09:29:46;;;;;;;17.80;12.90;;;;;;;14.99;96.36;100471.31;6190591;23;20048;-88
2022/10/15 09:32:18;;;;;;;18.05;11.50;;;;;;;14.98;96.36;100468.66;6185681;23;20028;-88
2022/10/15 09:35:03;;;;;;;13.57;9.38;;;;;;;15.02;96.40;100483.69;6185651;23;20438;-88
2022/10/15 09:37:35;;;;;;;13.50;9.27;;;;;;;15.02;96.42;100475.69;6185865;23;20001;-88
2022/10/15 09:40:19;;;;;;;14.07;9.20;;;;;;;15.06;97.30;100474.75;6185836;23;20400;-89
2022/10/15 09:42:44;;;;;;;13.63;8.75;;;;;;;15.05;97.25;100469.47;6185623;23;20008;-88
2022/10/15 09:45:13;;;;;;;13.57;8.52;;;;;;;14.98;97.75;100466.88;6185473;23;20005;-88
2022/10/15 09:47:40;;;;;;;12.48;8.45;;;;;;;14.95;98.40;100461.63;6183539;23;20029;-88
2022/10/15 09:50:09;;;;;;;12.93;7.75;;;;;;;14.94;99.53;100451.84;6185468;23;20021;-88
2022/10/15 09:52:52;;;;;;;12.50;7.30;;;;;;;14.98;100.00;100456.22;6184927;23;20087;-88
2022/10/15 09:55:41;;;;;;;10.15;6.65;;;;;;;14.95;100.00;100456.28;6185578;23;20076;-88
2022/10/15 09:58:37;;;;;;;7.53;5.55;;;;;;;14.93;100.00;100458.06;6185402;23;20084;-88
2022/10/15 10:01:06;;;;;;;9.32;5.75;;;;;;;14.88;100.00;100462.59;6182553;23;20009;-87
2022/10/15 10:03:33;;;;;;;10.35;6.22;;;;;;;14.80;100.00;100442.31;6184998;23;20082;-87
2022/10/15 10:06:11;;;;;;;10.38;6.10;;;;;;;14.85;100.00;100445.78;6189517;23;20024;-88
2022/10/15 10:08:49;;;;;;;8.25;5.43;;;;;;;14.91;100.00;100453.69;6187689;23;20063;-87
2022/10/15 10:11:16;;;;;;;9.30;5.80;;;;;;;14.83;100.00;100427.19;6187465;23;20016;-87
2022/10/15 10:14:02;;;;;;;10.35;5.40;;;;;;;14.90;100.00;100449.25;6187119;23;20089;-89
2022/10/15 10:16:29;;;;;;;8.80;4.70;;;;;;;14.95;100.00;100447.44;6186926;23;20062;-88
2022/10/15 10:19:05;;;;;;;8.27;5.38;;;;;;;14.95;100.00;100436.78;6160912;23;20551;-88
2022/10/15 10:21:34;;;;;;;8.90;5.32;;;;;;;14.96;100.00;100435.88;6187271;23;20001;-88
2022/10/15 10:24:23;;;;;;;7.80;5.10;;;;;;;15.01;100.00;100434.03;6186721;23;20327;-89
2022/10/15 10:26:49;;;;;;;7.07;4.80;;;;;;;14.98;100.00;100437.59;6187287;23;20367;-90
2022/10/15 10:29:22;;;;;;;5.85;4.25;;;;;;;14.98;100.00;100426.09;6188148;23;20017;-88
2022/10/15 10:31:50;;;;;;;6.53;4.50;;;;;;;15.05;100.00;100442.84;6189471;23;20009;-90
2022/10/15 10:34:22;;;;;;;6.25;4.72;;;;;;;15.06;100.00;100436.63;6187160;23;20092;-89
2022/10/15 10:36:52;;;;;;;7.28;4.50;;;;;;;15.08;100.00;100441.03;6190895;23;20057;-95
2022/10/15 10:39:29;;;;;;;6.85;4.07;;;;;;;15.15;100.00;100453.34;6193588;23;20005;-86
2022/10/15 10:41:56;;;;;;;9.98;4.05;;;;;;;15.22;100.00;100443.50;6186796;23;20328;-88
2022/10/15 10:44:29;;;;;;;5.70;3.60;;;;;;;15.28;100.00;100443.38;6184858;23;20001;-90
2022/10/15 10:47:05;;;;;;;4.88;3.50;;;;;;;15.22;100.00;100436.38;6185282;23;20001;-89
2022/10/15 10:49:36;;;;;;;4.80;2.67;;;;;;;15.34;100.00;100440.66;6185753;23;20016;-89
2022/10/15 10:52:02;;;;;;;3.90;2.63;;;;;;;15.37;100.00;100437.91;6199366;23;20001;-88
2022/10/15 10:54:30;;;;;;;5.47;2.45;;;;;;;15.46;100.00;100439.56;6191852;23;20009;-89
2022/10/15 10:56:57;;;;;;;3.95;2.33;;;;;;;15.52;100.00;100444.81;6186363;23;20005;-88
2022/10/15 10:59:30;;;;;;;3.80;2.63;;;;;;;15.57;100.00;100436.75;6186490;23;20032;-89
2022/10/15 11:01:56;;;;;;;4.25;2.50;;;;;;;15.64;100.00;100438.41;6186824;23;20014;-89
2022/10/15 11:04:29;;;;;;;3.03;2.40;;;;;;;15.63;100.00;100426.88;6186935;23;20005;-88
2022/10/15 11:07:08;;;;;;;3.58;2.50;;;;;;;15.64;100.00;100426.00;6185234;23;20315;-89
2022/10/15 11:10:01;;;;;;;4.25;2.40;;;;;;;15.77;100.00;100429.34;6186882;23;20009;-89
2022/10/15 11:12:33;;;;;;;;;;;;;;;15.83;100.00;100426.56;6187245;23;20005;-88
2022/10/15 11:15:13;;;;;;;5.70;2.65;;;;;;;15.87;100.00;100427.38;6160153;23;20289;-88
2022/10/15 11:18:07;;;;;;;3.25;2.50;;;;;;;15.92;100.00;100429.03;6186517;23;20016;-89